createdAt,value
2022-12-08T00:01:25.369Z,9.30
2022-12-08T00:03:52.587Z,9.77
2022-12-08T00:06:45.379Z,10.17
2022-12-08T00:09:39.520Z,9.10
2022-12-08T00:12:16.677Z,9.70
2022-12-08T00:14:46.179Z,9.80
2022-12-08T00:17:16.742Z,9.93
2022-12-08T00:19:43.744Z,10.17
2022-12-08T00:22:12.273Z,10.23
2022-12-08T00:24:40.377Z,9.90
2022-12-08T00:27:09.465Z,10.63
2022-12-08T00:29:36.983Z,10.70
2022-12-08T00:32:04.114Z,10.50
2022-12-08T00:34:34.426Z,9.87
2022-12-08T00:37:01.302Z,11.23
2022-12-08T00:39:28.231Z,9.83
2022-12-08T00:42:14.371Z,10.10
2022-12-08T00:44:42.761Z,10.67
2022-12-08T00:47:10.549Z,9.97
2022-12-08T00:49:37.386Z,9.43
2022-12-08T00:52:04.226Z,9.77
2022-12-08T00:54:31.066Z,9.40
2022-12-08T00:56:57.827Z,8.83
2022-12-08T00:59:24.620Z,9.37
2022-12-08T01:01:51.373Z,8.80
2022-12-08T01:04:19.962Z,8.53
2022-12-08T01:06:50.088Z,9.27
2022-12-08T01:09:17.822Z,9.17
2022-12-08T01:11:45.142Z,9.23
2022-12-08T01:14:12.997Z,8.77
2022-12-08T01:16:43.836Z,8.93
2022-12-08T01:19:12.982Z,8.63
2022-12-08T01:21:40.915Z,8.10
2022-12-08T01:24:11.074Z,8.13
2022-12-08T01:26:37.962Z,8.47
2022-12-08T01:29:04.721Z,8.67
2022-12-08T01:31:34.183Z,8.77
2022-12-08T01:34:00.992Z,8.17
2022-12-08T01:36:30.564Z,7.80
2022-12-08T01:39:01.682Z,7.73
2022-12-08T01:41:31.552Z,7.17
2022-12-08T01:44:21.033Z,7.83
2022-12-08T01:46:48.920Z,7.47
2022-12-08T01:49:25.611Z,6.87
2022-12-08T01:52:38.139Z,7.13
2022-12-08T01:55:17.628Z,7.00
2022-12-08T01:57:51.805Z,6.47
2022-12-08T02:00:21.720Z,6.33
2022-12-08T02:02:59.137Z,6.37
2022-12-08T02:05:42.463Z,5.60
2022-12-08T02:08:14.163Z,5.67
2022-12-08T02:10:42.850Z,5.90
2022-12-08T02:13:13.284Z,6.03
2022-12-08T02:16:01.228Z,5.40
2022-12-08T02:18:34.904Z,5.47
2022-12-08T02:21:11.379Z,5.97
2022-12-08T02:24:11.503Z,5.63
2022-12-08T02:27:12.622Z,5.80
2022-12-08T02:29:58.149Z,5.60
2022-12-08T02:33:02.405Z,5.00
2022-12-08T02:35:50.494Z,5.17
2022-12-08T02:38:41.274Z,4.77
2022-12-08T02:41:34.850Z,4.97
2022-12-08T02:44:12.658Z,4.67
2022-12-08T02:47:05.841Z,4.80
2022-12-08T02:49:33.953Z,4.63
2022-12-08T02:52:12.904Z,3.87
2022-12-08T02:54:45.953Z,4.00
2022-12-08T02:57:32.916Z,4.17
2022-12-08T03:00:07.865Z,2.80
2022-12-08T03:02:47.827Z,3.40
2022-12-08T03:05:47.231Z,3.10
2022-12-08T03:08:30.784Z,2.50
2022-12-08T03:11:06.045Z,2.37
2022-12-08T03:13:41.964Z,2.60
2022-12-08T03:16:11.175Z,2.00
2022-12-08T03:18:45.046Z,1.80
2022-12-08T03:21:15.541Z,1.87
2022-12-08T03:23:44.953Z,1.70
2022-12-08T03:26:25.488Z,1.97
2022-12-08T03:28:55.421Z,1.80
2022-12-08T03:31:26.954Z,1.57
2022-12-08T03:33:56.212Z,1.70
2022-12-08T03:36:23.550Z,1.60
2022-12-08T03:38:55.464Z,1.57
2022-12-08T03:41:23.110Z,1.50
2022-12-08T03:43:54.964Z,1.70
2022-12-08T03:48:50.004Z,1.37
2022-12-08T03:51:19.657Z,1.20
2022-12-08T03:53:46.997Z,1.33
2022-12-08T03:56:24.898Z,1.30
2022-12-08T03:58:52.718Z,1.23
2022-12-08T04:01:23.016Z,1.50
2022-12-08T04:03:52.955Z,1.10
2022-12-08T04:06:20.824Z,1.30
2022-12-08T04:08:50.693Z,1.20
2022-12-08T04:11:20.557Z,1.20
2022-12-08T04:13:47.705Z,1.23
2022-12-08T04:16:21.934Z,1.20
2022-12-08T04:18:49.277Z,1.40
2022-12-08T04:21:16.049Z,1.53
2022-12-08T04:23:42.749Z,1.50
2022-12-08T04:26:09.729Z,1.67
2022-12-08T04:28:37.034Z,1.77
2022-12-08T04:31:04.324Z,2.30
2022-12-08T04:33:31.185Z,2.27
2022-12-08T04:35:58.173Z,2.00
2022-12-08T04:38:24.941Z,2.27
2022-12-08T04:44:38.572Z,2.30
2022-12-08T04:47:05.352Z,1.83
2022-12-08T04:49:32.211Z,2.10
2022-12-08T04:51:58.921Z,2.00
2022-12-08T04:54:26.649Z,2.53
2022-12-08T04:56:53.464Z,2.60
2022-12-08T04:59:20.146Z,2.70
2022-12-08T05:01:52.085Z,2.70
2022-12-08T05:04:18.985Z,2.83
2022-12-08T05:06:45.723Z,2.17
2022-12-08T05:09:18.408Z,2.40
2022-12-08T05:11:49.118Z,1.80
2022-12-08T05:14:20.430Z,1.83
2022-12-08T05:16:48.202Z,1.50
2022-12-08T05:19:16.251Z,1.30
2022-12-08T05:21:46.241Z,1.70
2022-12-08T05:24:13.030Z,1.50
2022-12-08T05:26:39.821Z,1.80
2022-12-08T05:29:07.846Z,1.40
2022-12-08T05:31:34.670Z,1.50
2022-12-08T05:34:03.400Z,1.93
2022-12-08T05:36:30.405Z,2.30
2022-12-08T05:38:58.088Z,2.30
2022-12-08T05:41:24.912Z,2.30
2022-12-08T05:43:51.773Z,2.20
2022-12-08T05:46:19.052Z,2.57
2022-12-08T05:48:45.955Z,1.83
2022-12-08T05:51:18.038Z,2.30
2022-12-08T05:53:54.077Z,2.37
2022-12-08T05:56:21.540Z,1.93
2022-12-08T05:58:51.348Z,1.60
2022-12-08T06:01:27.604Z,1.40
2022-12-08T06:03:55.522Z,1.60
2022-12-08T06:06:22.509Z,1.73
2022-12-08T06:08:49.775Z,1.90
2022-12-08T06:11:28.667Z,2.07
2022-12-08T06:13:56.840Z,2.43
2022-12-08T06:16:26.238Z,1.63
2022-12-08T06:18:53.371Z,1.90
2022-12-08T06:21:20.638Z,1.93
2022-12-08T06:23:52.816Z,2.30
2022-12-08T06:26:20.073Z,2.47
2022-12-08T06:28:47.038Z,2.47
2022-12-08T06:31:22.673Z,2.17
2022-12-08T06:33:49.867Z,2.70
2022-12-08T06:36:18.737Z,2.80
2022-12-08T06:38:45.909Z,3.10
2022-12-08T06:41:13.268Z,2.60
2022-12-08T06:43:43.280Z,2.57
2022-12-08T06:46:13.305Z,2.40
2022-12-08T06:48:40.385Z,2.30
2022-12-08T06:51:08.137Z,2.50
2022-12-08T06:53:35.172Z,2.27
2022-12-08T06:56:02.313Z,1.90
2022-12-08T06:58:29.036Z,2.10
2022-12-08T07:00:55.867Z,1.77
2022-12-08T07:03:22.858Z,2.30
2022-12-08T07:05:49.844Z,2.23
2022-12-08T07:08:19.838Z,2.13
2022-12-08T07:10:46.739Z,2.10
2022-12-08T07:13:13.500Z,2.10
2022-12-08T07:15:40.214Z,1.97
2022-12-08T07:18:17.277Z,2.00
2022-12-08T07:20:44.060Z,2.23
2022-12-08T07:23:10.845Z,2.30
2022-12-08T07:25:37.619Z,2.10
2022-12-08T07:28:09.014Z,1.83
2022-12-08T07:30:35.922Z,1.80
2022-12-08T07:33:06.343Z,1.73
2022-12-08T07:35:34.965Z,2.43
2022-12-08T07:38:02.198Z,3.27
2022-12-08T07:40:28.994Z,2.13
2022-12-08T07:42:55.696Z,2.27
2022-12-08T07:45:31.708Z,1.90
2022-12-08T07:48:08.229Z,1.80
2022-12-08T07:50:35.118Z,1.50
2022-12-08T07:53:05.310Z,1.93
2022-12-08T07:55:32.110Z,1.10
2022-12-08T07:57:58.919Z,0.93
2022-12-08T08:00:25.900Z,0.70
2022-12-08T08:02:52.907Z,0.60
2022-12-08T08:05:20.668Z,0.50
2022-12-08T08:07:48.480Z,0.40
2022-12-08T08:10:15.386Z,0.40
2022-12-08T08:12:42.325Z,0.43
2022-12-08T08:15:09.733Z,0.50
2022-12-08T08:17:37.909Z,0.50
2022-12-08T08:20:09.205Z,0.50
2022-12-08T08:22:36.768Z,0.63
2022-12-08T08:25:04.119Z,0.70
2022-12-08T08:27:30.999Z,0.70
2022-12-08T08:29:57.694Z,0.73
2022-12-08T08:32:24.520Z,0.80
2022-12-08T08:34:51.863Z,0.87
2022-12-08T08:37:18.882Z,0.70
2022-12-08T08:39:45.661Z,0.73
2022-12-08T08:42:12.451Z,0.80
2022-12-08T08:44:39.243Z,0.90
2022-12-08T08:47:06.096Z,0.90
2022-12-08T08:49:32.886Z,1.10
2022-12-08T08:51:59.659Z,0.93
2022-12-08T08:54:28.454Z,1.50
2022-12-08T08:56:55.337Z,1.10
2022-12-08T08:59:22.034Z,1.40
2022-12-08T09:01:51.661Z,1.53
2022-12-08T09:04:18.807Z,1.43
2022-12-08T09:06:45.589Z,1.80
2022-12-08T09:09:12.604Z,1.97
2022-12-08T09:11:39.426Z,2.20
2022-12-08T09:14:06.610Z,2.10
2022-12-08T09:16:41.810Z,2.00
2022-12-08T09:19:09.271Z,2.07
2022-12-08T09:21:36.089Z,2.53
2022-12-08T09:24:04.855Z,2.23
2022-12-08T09:26:31.617Z,2.70
2022-12-08T09:28:58.503Z,2.50
2022-12-08T09:31:25.612Z,2.77
2022-12-08T09:33:52.664Z,2.87
2022-12-08T09:36:19.889Z,2.40
2022-12-08T09:38:46.784Z,2.17
2022-12-08T09:41:40.676Z,1.93
2022-12-08T09:44:20.514Z,2.53
2022-12-08T09:46:51.219Z,2.20
2022-12-08T09:49:22.708Z,1.97
2022-12-08T09:51:49.598Z,2.47
2022-12-08T09:54:22.206Z,2.30
2022-12-08T09:56:54.831Z,2.50
2022-12-08T09:59:26.761Z,2.37
2022-12-08T10:01:55.101Z,2.13
2022-12-08T10:04:32.585Z,2.10
2022-12-08T10:07:20.780Z,2.20
2022-12-08T10:09:58.099Z,2.60
2022-12-08T10:12:39.331Z,2.60
2022-12-08T10:15:30.919Z,2.53
2022-12-08T10:18:01.890Z,2.37
2022-12-08T10:20:42.021Z,2.43
2022-12-08T10:23:30.994Z,1.87
2022-12-08T10:26:06.645Z,1.90
2022-12-08T10:28:36.710Z,2.00
2022-12-08T10:31:05.901Z,2.03
2022-12-08T10:33:33.642Z,2.27
2022-12-08T10:36:03.178Z,1.93
2022-12-08T10:38:35.106Z,2.00
2022-12-08T10:41:09.355Z,1.73
2022-12-08T10:43:40.129Z,2.40
2022-12-08T10:46:22.199Z,2.57
2022-12-08T10:49:05.678Z,3.07
2022-12-08T10:51:39.338Z,2.83
2022-12-08T10:54:24.485Z,2.77
2022-12-08T10:56:58.550Z,3.10
2022-12-08T10:59:26.053Z,3.07
2022-12-08T11:01:55.924Z,3.20
2022-12-08T11:04:34.555Z,2.20
2022-12-08T11:07:01.696Z,1.73
2022-12-08T11:09:41.253Z,1.60
2022-12-08T11:12:21.877Z,1.00
2022-12-08T11:14:59.070Z,0.90
2022-12-08T11:17:37.834Z,1.00
2022-12-08T11:20:21.859Z,0.63
2022-12-08T11:22:58.914Z,1.00
2022-12-08T11:25:29.085Z,0.63
2022-12-08T11:28:01.363Z,0.60
2022-12-08T11:30:48.996Z,0.53
2022-12-08T11:33:20.501Z,0.43
2022-12-08T11:35:57.608Z,0.40
2022-12-08T11:38:26.858Z,0.47
2022-12-08T11:41:08.389Z,0.37
2022-12-08T11:44:02.313Z,0.30
2022-12-08T11:46:41.187Z,0.20
2022-12-08T11:49:15.457Z,0.40
2022-12-08T11:52:02.727Z,0.60
2022-12-08T11:54:40.170Z,0.30
2022-12-08T11:57:20.813Z,0.47
2022-12-08T11:59:53.981Z,0.20
2022-12-08T12:02:27.201Z,0.50
2022-12-08T12:05:11.814Z,0.60
2022-12-08T12:07:41.843Z,0.60
2022-12-08T12:10:45.332Z,0.53
2022-12-08T12:13:42.571Z,0.63
2022-12-08T12:16:12.395Z,0.93
2022-12-08T12:18:47.307Z,0.97
2022-12-08T12:21:36.303Z,0.80
2022-12-08T12:24:10.816Z,0.97
2022-12-08T12:26:49.682Z,0.90
2022-12-08T12:29:21.116Z,1.10
2022-12-08T12:31:56.293Z,1.63
2022-12-08T12:34:26.433Z,1.90
2022-12-08T12:36:58.398Z,1.80
2022-12-08T12:39:31.382Z,2.00
2022-12-08T12:42:02.264Z,2.10
2022-12-08T12:44:28.924Z,1.70
2022-12-08T12:47:02.008Z,2.00
2022-12-08T12:49:43.669Z,1.90
2022-12-08T12:52:10.381Z,2.40
2022-12-08T12:55:05.107Z,1.83
2022-12-08T12:57:55.602Z,1.20
2022-12-08T13:00:25.368Z,1.60
2022-12-08T13:02:55.532Z,1.30
2022-12-08T13:05:31.692Z,1.20
2022-12-08T13:08:21.803Z,1.13
2022-12-08T13:11:06.743Z,1.27
2022-12-08T13:13:33.681Z,0.90
2022-12-08T13:16:15.395Z,1.07
2022-12-08T13:18:57.861Z,1.13
2022-12-08T13:21:31.731Z,1.77
2022-12-08T13:24:10.714Z,1.30
2022-12-08T13:26:49.079Z,1.27
2022-12-08T13:29:15.881Z,1.20
2022-12-08T13:32:01.429Z,1.00
2022-12-08T13:34:42.327Z,1.33
2022-12-08T13:37:12.128Z,1.30
2022-12-08T13:40:09.897Z,1.73
2022-12-08T13:42:47.092Z,1.50
2022-12-08T13:45:33.500Z,1.60
2022-12-08T13:48:26.588Z,1.73
2022-12-08T13:53:22.466Z,1.40
2022-12-08T13:57:28.826Z,1.70
2022-12-08T14:00:01.347Z,1.30
2022-12-08T14:02:45.501Z,1.67
2022-12-08T14:05:19.833Z,1.90
2022-12-08T14:07:55.084Z,1.97
2022-12-08T14:10:31.975Z,1.90
2022-12-08T14:13:02.932Z,1.73
2022-12-08T14:15:37.841Z,1.87
2022-12-08T14:18:07.178Z,1.93
2022-12-08T14:20:57.823Z,1.93
2022-12-08T14:23:22.554Z,1.90
2022-12-08T14:25:49.597Z,1.67
2022-12-08T14:28:17.049Z,2.30
2022-12-08T14:30:44.035Z,2.17
2022-12-08T14:33:17.121Z,3.10
2022-12-08T14:35:50.985Z,3.17
2022-12-08T14:38:19.974Z,3.50
2022-12-08T14:40:49.730Z,3.43
2022-12-08T14:43:20.888Z,3.80
2022-12-08T14:45:50.741Z,4.47
2022-12-08T14:48:38.702Z,4.73
2022-12-08T14:51:14.590Z,5.27
2022-12-08T14:53:55.946Z,5.70
2022-12-08T14:56:36.127Z,6.07
2022-12-08T14:59:05.341Z,7.00
2022-12-08T15:01:33.021Z,6.73
2022-12-08T15:04:22.879Z,6.60
2022-12-08T15:07:17.841Z,6.97
2022-12-08T15:09:50.482Z,7.13
2022-12-08T15:12:26.712Z,6.80
2022-12-08T15:15:08.683Z,7.13
2022-12-08T15:17:40.860Z,7.67
2022-12-08T15:20:41.134Z,7.40
2022-12-08T15:23:22.717Z,8.23
2022-12-08T15:25:50.326Z,7.47
2022-12-08T15:28:29.303Z,7.57
2022-12-08T15:31:02.945Z,7.93
2022-12-08T15:33:29.746Z,6.90
2022-12-08T15:35:56.859Z,7.17
2022-12-08T15:38:26.936Z,7.70
2022-12-08T15:40:55.172Z,7.43
2022-12-08T15:43:22.629Z,7.33
2022-12-08T15:45:58.602Z,6.87
2022-12-08T15:48:30.657Z,6.43
2022-12-08T15:50:58.798Z,5.80
2022-12-08T15:53:26.113Z,6.00
2022-12-08T15:56:25.954Z,5.60
2022-12-08T15:58:56.628Z,5.00
2022-12-08T16:01:27.389Z,4.80
2022-12-08T16:04:36.825Z,4.13
2022-12-08T16:07:21.053Z,3.63
2022-12-08T16:09:39.803Z,4.27
2022-12-08T16:13:19.980Z,4.37
2022-12-08T16:18:16.469Z,3.70
2022-12-08T16:21:07.389Z,3.97
2022-12-08T16:23:46.316Z,3.90
2022-12-08T16:26:54.497Z,3.47
2022-12-08T16:29:08.142Z,4.03
2022-12-08T16:31:35.054Z,4.13
2022-12-08T16:34:03.917Z,4.33
2022-12-08T16:36:30.643Z,3.40
2022-12-08T16:38:57.354Z,3.70
2022-12-08T16:41:42.872Z,3.83
2022-12-08T16:44:09.857Z,4.57
2022-12-08T16:46:37.088Z,4.13
2022-12-08T16:49:07.700Z,4.13
2022-12-08T16:51:34.541Z,3.93
2022-12-08T16:54:01.253Z,4.10
2022-12-08T16:56:32.597Z,4.60
2022-12-08T16:59:00.725Z,4.30
2022-12-08T17:01:27.805Z,3.70
2022-12-08T17:04:29.821Z,4.53
2022-12-08T17:06:41.351Z,4.70
2022-12-08T17:09:08.302Z,4.43
2022-12-08T17:11:40.771Z,6.00
2022-12-08T17:14:09.668Z,4.83
2022-12-08T17:16:36.410Z,4.47
2022-12-08T17:19:03.316Z,4.57
2022-12-08T17:21:30.433Z,4.00
2022-12-08T17:23:57.144Z,4.10
2022-12-08T17:26:24.190Z,3.97
2022-12-08T17:29:00.665Z,3.90
2022-12-08T17:31:30.329Z,3.67
2022-12-08T17:34:08.252Z,3.97
2022-12-08T17:36:37.022Z,4.00
2022-12-08T17:39:05.030Z,3.80
2022-12-08T17:41:32.093Z,3.90
2022-12-08T17:43:58.910Z,3.83
2022-12-08T17:46:25.749Z,4.27
2022-12-08T17:48:53.721Z,5.90
2022-12-08T17:51:20.664Z,4.43
2022-12-08T17:53:49.280Z,4.53
2022-12-08T17:56:19.519Z,4.50
2022-12-08T17:58:52.576Z,4.40
2022-12-08T18:01:21.270Z,4.77
2022-12-08T18:03:48.071Z,4.97
2022-12-08T18:06:14.877Z,5.10
2022-12-08T18:08:41.647Z,5.33
2022-12-08T18:11:15.687Z,5.27
2022-12-08T18:13:42.734Z,5.90
2022-12-08T18:16:09.621Z,6.60
2022-12-08T18:18:36.385Z,6.20
2022-12-08T18:21:03.302Z,6.60
2022-12-08T18:23:30.125Z,6.57
2022-12-08T18:25:56.807Z,6.63
2022-12-08T18:28:24.365Z,7.77
2022-12-08T18:30:51.305Z,7.23
2022-12-08T18:33:18.053Z,7.57
2022-12-08T18:35:44.991Z,6.70
2022-12-08T18:38:11.713Z,7.57
2022-12-08T18:40:38.723Z,7.57
2022-12-08T18:43:05.491Z,8.00
2022-12-08T18:45:32.533Z,8.07
2022-12-08T18:47:59.276Z,7.93
2022-12-08T18:50:25.965Z,8.57
2022-12-08T18:52:52.973Z,8.20
2022-12-08T18:55:21.827Z,8.70
2022-12-08T18:57:49.163Z,7.97
2022-12-08T19:00:18.289Z,8.40
2022-12-08T19:02:45.586Z,8.23
2022-12-08T19:05:13.700Z,8.57
2022-12-08T19:07:42.495Z,8.83
2022-12-08T19:10:13.063Z,8.87
2022-12-08T19:12:42.993Z,9.53
2022-12-08T19:15:10.193Z,9.60
2022-12-08T19:17:39.501Z,9.50
2022-12-08T19:20:07.452Z,9.47
2022-12-08T19:22:34.299Z,9.90
2022-12-08T19:25:01.062Z,10.03
2022-12-08T19:27:29.085Z,10.00
2022-12-08T19:29:59.506Z,9.67
2022-12-08T19:32:30.107Z,10.80
2022-12-08T19:34:56.882Z,10.10
2022-12-08T19:37:23.561Z,10.33
2022-12-08T19:40:09.051Z,11.13
2022-12-08T19:42:54.624Z,11.23
2022-12-08T19:45:23.182Z,11.60
2022-12-08T19:47:50.133Z,11.30
2022-12-08T19:50:36.244Z,12.07
2022-12-08T19:53:05.517Z,11.80
2022-12-08T19:55:32.738Z,11.67
2022-12-08T19:58:01.823Z,12.93
2022-12-08T20:00:30.753Z,13.20
2022-12-08T20:02:59.837Z,12.43
2022-12-08T20:05:26.998Z,13.27
2022-12-08T20:07:55.824Z,13.03
2022-12-08T20:10:28.018Z,12.77
2022-12-08T20:13:14.808Z,12.97
2022-12-08T20:15:43.074Z,13.13
2022-12-08T20:18:11.579Z,12.73
2022-12-08T20:20:40.071Z,14.40
2022-12-08T20:23:07.493Z,14.03
2022-12-08T20:25:38.917Z,13.10
2022-12-08T20:28:06.235Z,13.60
2022-12-08T20:30:33.379Z,13.50
2022-12-08T20:33:00.087Z,12.93
2022-12-08T20:35:27.262Z,13.40
2022-12-08T20:37:54.508Z,13.43
2022-12-08T20:40:21.383Z,13.73
2022-12-08T20:42:48.166Z,14.07
2022-12-08T20:45:14.962Z,13.03
2022-12-08T20:47:41.890Z,14.60
2022-12-08T20:50:09.762Z,14.40
2022-12-08T20:52:40.278Z,14.07
2022-12-08T20:55:10.850Z,13.73
2022-12-08T20:57:37.745Z,14.50
2022-12-08T21:00:08.422Z,14.73
2022-12-08T21:02:35.618Z,15.07
2022-12-08T21:05:02.757Z,15.47
2022-12-08T21:07:29.898Z,15.27
2022-12-08T21:09:56.693Z,15.37
2022-12-08T21:12:23.691Z,16.20
2022-12-08T21:14:50.600Z,16.17
2022-12-08T21:17:17.570Z,14.47
2022-12-08T21:19:44.526Z,15.00
2022-12-08T21:22:11.686Z,16.40
2022-12-08T21:24:38.397Z,15.40
2022-12-08T21:27:08.123Z,16.47
2022-12-08T21:29:34.932Z,16.07
2022-12-08T21:32:02.208Z,16.87
2022-12-08T21:34:31.917Z,16.43
2022-12-08T21:36:59.136Z,17.07
2022-12-08T21:39:26.451Z,15.83
2022-12-08T21:42:12.449Z,16.40
2022-12-08T21:44:39.303Z,16.20
2022-12-08T21:47:06.685Z,16.90
2022-12-08T21:49:33.724Z,16.23
2022-12-08T21:52:00.596Z,16.10
2022-12-08T21:54:27.736Z,16.70
2022-12-08T21:56:54.708Z,17.03
2022-12-08T21:59:21.570Z,17.07
2022-12-08T22:01:48.724Z,16.63
2022-12-08T22:04:24.565Z,15.90
2022-12-08T22:06:52.346Z,17.70
2022-12-08T22:09:19.497Z,15.80
2022-12-08T22:11:46.933Z,17.10
2022-12-08T22:14:15.242Z,16.23
2022-12-08T22:16:43.297Z,16.57
2022-12-08T22:19:11.045Z,17.77
2022-12-08T22:21:38.394Z,16.87
2022-12-08T22:24:05.765Z,17.40
2022-12-08T22:26:32.708Z,17.93
2022-12-08T22:29:00.451Z,16.67
2022-12-08T22:31:27.851Z,17.73
2022-12-08T22:33:55.011Z,17.37
2022-12-08T22:36:24.570Z,17.30
2022-12-08T22:38:52.508Z,16.80
2022-12-08T22:41:19.932Z,18.80
2022-12-08T22:43:47.606Z,17.80
2022-12-08T22:46:21.151Z,18.93
2022-12-08T22:48:50.098Z,18.63
2022-12-08T22:51:17.556Z,19.47
2022-12-08T22:53:46.661Z,18.53
2022-12-08T22:56:15.370Z,18.63
2022-12-08T22:58:42.645Z,19.13
2022-12-08T23:01:20.984Z,18.07
2022-12-08T23:03:47.906Z,19.70
2022-12-08T23:06:14.945Z,19.30
2022-12-08T23:08:41.910Z,19.20
2022-12-08T23:11:08.997Z,19.60
2022-12-08T23:13:37.999Z,19.77
2022-12-08T23:16:05.614Z,18.97
2022-12-08T23:18:32.400Z,19.80
2022-12-08T23:21:06.574Z,19.90
2022-12-08T23:23:33.302Z,19.10
2022-12-08T23:26:00.440Z,20.97
2022-12-08T23:28:27.288Z,21.07
2022-12-08T23:30:54.062Z,19.73
2022-12-08T23:33:20.995Z,19.93
2022-12-08T23:36:00.423Z,20.60
2022-12-08T23:38:27.271Z,20.60
2022-12-08T23:40:54.187Z,21.50
2022-12-08T23:43:25.846Z,20.47
2022-12-08T23:45:52.874Z,21.27
2022-12-08T23:48:19.712Z,20.30
2022-12-08T23:50:46.645Z,20.43
2022-12-08T23:53:13.520Z,19.83
2022-12-08T23:55:43.540Z,20.70
2022-12-08T23:58:10.514Z,20.30
